sensor_id;sensor_type;location;lat;lon;timestamp;P1;durP1;ratioP1;P2;durP2;ratioP2
9438;SDS011;5176;42.622;25.386;2023-05-29T00:00:10;4.05;;;3.72;;
9438;SDS011;5176;42.622;25.386;2023-05-29T00:02:38;5.38;;;4.00;;
9438;SDS011;5176;42.622;25.386;2023-05-29T00:05:11;4.22;;;3.60;;
9438;SDS011;5176;42.622;25.386;2023-05-29T00:07:38;4.50;;;4.10;;
9438;SDS011;5176;42.622;25.386;2023-05-29T00:10:06;4.43;;;4.07;;
9438;SDS011;5176;42.622;25.386;2023-05-29T00:12:36;6.40;;;4.05;;
9438;SDS011;5176;42.622;25.386;2023-05-29T00:15:04;4.15;;;3.75;;
9438;SDS011;5176;42.622;25.386;2023-05-29T00:17:32;4.47;;;4.07;;
9438;SDS011;5176;42.622;25.386;2023-05-29T00:20:00;4.75;;;4.32;;
9438;SDS011;5176;42.622;25.386;2023-05-29T00:22:32;5.20;;;4.47;;
9438;SDS011;5176;42.622;25.386;2023-05-29T00:25:02;5.63;;;4.07;;
9438;SDS011;5176;42.622;25.386;2023-05-29T00:27:30;4.80;;;4.20;;
9438;SDS011;5176;42.622;25.386;2023-05-29T00:29:58;5.55;;;4.50;;
9438;SDS011;5176;42.622;25.386;2023-05-29T00:32:25;5.70;;;4.50;;
9438;SDS011;5176;42.622;25.386;2023-05-29T00:34:52;4.68;;;4.28;;
9438;SDS011;5176;42.622;25.386;2023-05-29T00:37:20;4.47;;;3.65;;
9438;SDS011;5176;42.622;25.386;2023-05-29T00:39:49;5.90;;;4.10;;
9438;SDS011;5176;42.622;25.386;2023-05-29T00:42:16;5.22;;;4.40;;
9438;SDS011;5176;42.622;25.386;2023-05-29T00:44:44;6.63;;;4.45;;
9438;SDS011;5176;42.622;25.386;2023-05-29T00:47:11;4.22;;;3.83;;
9438;SDS011;5176;42.622;25.386;2023-05-29T00:49:39;4.70;;;4.30;;
9438;SDS011;5176;42.622;25.386;2023-05-29T00:52:06;4.40;;;4.07;;
9438;SDS011;5176;42.622;25.386;2023-05-29T00:54:35;4.45;;;4.07;;
9438;SDS011;5176;42.622;25.386;2023-05-29T00:57:05;6.63;;;4.20;;
9438;SDS011;5176;42.622;25.386;2023-05-29T00:59:32;6.47;;;4.60;;
9438;SDS011;5176;42.622;25.386;2023-05-29T01:02:00;4.90;;;4.40;;
9438;SDS011;5176;42.622;25.386;2023-05-29T01:04:29;4.18;;;3.78;;
9438;SDS011;5176;42.622;25.386;2023-05-29T01:06:59;4.80;;;4.07;;
9438;SDS011;5176;42.622;25.386;2023-05-29T01:09:27;4.28;;;3.92;;
9438;SDS011;5176;42.622;25.386;2023-05-29T01:11:58;5.07;;;4.22;;
9438;SDS011;5176;42.622;25.386;2023-05-29T01:14:45;4.53;;;4.13;;
9438;SDS011;5176;42.622;25.386;2023-05-29T01:17:24;4.63;;;4.20;;
9438;SDS011;5176;42.622;25.386;2023-05-29T01:20:04;4.43;;;4.03;;
9438;SDS011;5176;42.622;25.386;2023-05-29T01:22:47;4.75;;;4.30;;
9438;SDS011;5176;42.622;25.386;2023-05-29T01:25:27;5.25;;;4.80;;
9438;SDS011;5176;42.622;25.386;2023-05-29T01:28:02;5.30;;;4.80;;
9438;SDS011;5176;42.622;25.386;2023-05-29T01:30:32;5.85;;;5.35;;
9438;SDS011;5176;42.622;25.386;2023-05-29T01:33:01;7.47;;;5.45;;
9438;SDS011;5176;42.622;25.386;2023-05-29T01:35:29;5.60;;;5.07;;
9438;SDS011;5176;42.622;25.386;2023-05-29T01:37:56;7.22;;;5.05;;
9438;SDS011;5176;42.622;25.386;2023-05-29T01:40:23;7.10;;;5.28;;
9438;SDS011;5176;42.622;25.386;2023-05-29T01:42:50;6.50;;;5.90;;
9438;SDS011;5176;42.622;25.386;2023-05-29T01:45:19;6.03;;;5.53;;
9438;SDS011;5176;42.622;25.386;2023-05-29T01:47:46;5.90;;;5.40;;
9438;SDS011;5176;42.622;25.386;2023-05-29T01:50:14;7.03;;;6.32;;
9438;SDS011;5176;42.622;25.386;2023-05-29T01:52:44;6.22;;;5.60;;
9438;SDS011;5176;42.622;25.386;2023-05-29T01:55:11;6.10;;;5.50;;
9438;SDS011;5176;42.622;25.386;2023-05-29T01:57:38;7.53;;;6.13;;
9438;SDS011;5176;42.622;25.386;2023-05-29T02:00:07;5.72;;;5.28;;
9438;SDS011;5176;42.622;25.386;2023-05-29T02:02:37;6.47;;;5.57;;
9438;SDS011;5176;42.622;25.386;2023-05-29T02:05:06;6.70;;;5.68;;
9438;SDS011;5176;42.622;25.386;2023-05-29T02:07:34;6.80;;;6.10;;
9438;SDS011;5176;42.622;25.386;2023-05-29T02:10:02;6.15;;;5.55;;
9438;SDS011;5176;42.622;25.386;2023-05-29T02:12:29;6.15;;;5.55;;
9438;SDS011;5176;42.622;25.386;2023-05-29T02:14:56;7.68;;;6.20;;
9438;SDS011;5176;42.622;25.386;2023-05-29T02:17:23;5.93;;;5.32;;
9438;SDS011;5176;42.622;25.386;2023-05-29T02:19:52;7.40;;;5.85;;
9438;SDS011;5176;42.622;25.386;2023-05-29T02:22:19;7.20;;;5.95;;
9438;SDS011;5176;42.622;25.386;2023-05-29T02:24:46;6.55;;;5.50;;
9438;SDS011;5176;42.622;25.386;2023-05-29T02:27:13;6.32;;;5.40;;
9438;SDS011;5176;42.622;25.386;2023-05-29T02:29:40;6.93;;;5.97;;
9438;SDS011;5176;42.622;25.386;2023-05-29T02:32:07;6.60;;;6.05;;
9438;SDS011;5176;42.622;25.386;2023-05-29T02:34:35;7.97;;;5.53;;
9438;SDS011;5176;42.622;25.386;2023-05-29T02:37:04;7.80;;;6.07;;
9438;SDS011;5176;42.622;25.386;2023-05-29T02:39:31;6.47;;;5.97;;
9438;SDS011;5176;42.622;25.386;2023-05-29T02:41:58;7.05;;;6.45;;
9438;SDS011;5176;42.622;25.386;2023-05-29T02:44:25;6.72;;;6.13;;
9438;SDS011;5176;42.622;25.386;2023-05-29T02:46:52;6.95;;;6.35;;
9438;SDS011;5176;42.622;25.386;2023-05-29T02:49:19;7.00;;;6.40;;
9438;SDS011;5176;42.622;25.386;2023-05-29T02:51:47;9.77;;;6.20;;
9438;SDS011;5176;42.622;25.386;2023-05-29T02:54:15;6.82;;;6.13;;
9438;SDS011;5176;42.622;25.386;2023-05-29T02:56:42;8.43;;;6.05;;
9438;SDS011;5176;42.622;25.386;2023-05-29T02:59:09;7.22;;;6.47;;
9438;SDS011;5176;42.622;25.386;2023-05-29T03:01:36;6.93;;;6.00;;
9438;SDS011;5176;42.622;25.386;2023-05-29T03:04:04;7.70;;;7.00;;
9438;SDS011;5176;42.622;25.386;2023-05-29T03:06:31;7.10;;;6.38;;
9438;SDS011;5176;42.622;25.386;2023-05-29T03:08:59;6.75;;;6.15;;
9438;SDS011;5176;42.622;25.386;2023-05-29T03:11:27;6.20;;;5.60;;
9438;SDS011;5176;42.622;25.386;2023-05-29T03:13:56;6.70;;;5.90;;
9438;SDS011;5176;42.622;25.386;2023-05-29T03:16:23;5.95;;;5.38;;
9438;SDS011;5176;42.622;25.386;2023-05-29T03:18:50;5.20;;;4.72;;
9438;SDS011;5176;42.622;25.386;2023-05-29T03:21:17;7.05;;;4.93;;
9438;SDS011;5176;42.622;25.386;2023-05-29T03:23:45;5.90;;;4.70;;
9438;SDS011;5176;42.622;25.386;2023-05-29T03:26:12;4.82;;;4.40;;
9438;SDS011;5176;42.622;25.386;2023-05-29T03:28:41;5.70;;;4.70;;
9438;SDS011;5176;42.622;25.386;2023-05-29T03:31:08;5.55;;;5.05;;
9438;SDS011;5176;42.622;25.386;2023-05-29T03:33:35;5.05;;;4.55;;
9438;SDS011;5176;42.622;25.386;2023-05-29T03:36:03;5.68;;;5.18;;
9438;SDS011;5176;42.622;25.386;2023-05-29T03:38:30;6.75;;;5.15;;
9438;SDS011;5176;42.622;25.386;2023-05-29T03:40:57;5.45;;;4.78;;
9438;SDS011;5176;42.622;25.386;2023-05-29T03:43:25;6.07;;;5.47;;
9438;SDS011;5176;42.622;25.386;2023-05-29T03:45:53;6.53;;;5.60;;
9438;SDS011;5176;42.622;25.386;2023-05-29T03:48:20;7.30;;;5.25;;
9438;SDS011;5176;42.622;25.386;2023-05-29T03:50:48;7.25;;;5.45;;
9438;SDS011;5176;42.622;25.386;2023-05-29T03:53:16;6.20;;;5.60;;
9438;SDS011;5176;42.622;25.386;2023-05-29T03:55:43;6.03;;;5.45;;
9438;SDS011;5176;42.622;25.386;2023-05-29T03:58:10;7.60;;;5.90;;
9438;SDS011;5176;42.622;25.386;2023-05-29T04:00:38;5.57;;;5.05;;
9438;SDS011;5176;42.622;25.386;2023-05-29T04:03:07;7.95;;;5.35;;
9438;SDS011;5176;42.622;25.386;2023-05-29T04:05:35;5.57;;;4.95;;
9438;SDS011;5176;42.622;25.386;2023-05-29T04:08:02;8.38;;;5.47;;
9438;SDS011;5176;42.622;25.386;2023-05-29T04:10:30;5.13;;;4.65;;
9438;SDS011;5176;42.622;25.386;2023-05-29T04:12:59;5.68;;;5.18;;
9438;SDS011;5176;42.622;25.386;2023-05-29T04:15:26;5.55;;;5.05;;
9438;SDS011;5176;42.622;25.386;2023-05-29T04:17:55;5.95;;;5.35;;
9438;SDS011;5176;42.622;25.386;2023-05-29T04:20:24;6.10;;;5.50;;
9438;SDS011;5176;42.622;25.386;2023-05-29T04:22:51;5.80;;;5.20;;
9438;SDS011;5176;42.622;25.386;2023-05-29T04:25:19;7.40;;;4.95;;
9438;SDS011;5176;42.622;25.386;2023-05-29T04:27:46;6.00;;;5.30;;
9438;SDS011;5176;42.622;25.386;2023-05-29T04:30:14;5.07;;;4.57;;
9438;SDS011;5176;42.622;25.386;2023-05-29T04:32:42;5.10;;;4.70;;
9438;SDS011;5176;42.622;25.386;2023-05-29T04:35:09;8.13;;;5.22;;
9438;SDS011;5176;42.622;25.386;2023-05-29T04:37:38;10.50;;;7.10;;
9438;SDS011;5176;42.622;25.386;2023-05-29T04:40:06;8.70;;;7.90;;
9438;SDS011;5176;42.622;25.386;2023-05-29T04:42:35;9.23;;;6.95;;
9438;SDS011;5176;42.622;25.386;2023-05-29T04:45:03;8.02;;;7.22;;
9438;SDS011;5176;42.622;25.386;2023-05-29T04:47:31;14.32;;;8.45;;
9438;SDS011;5176;42.622;25.386;2023-05-29T04:49:59;13.45;;;9.40;;
9438;SDS011;5176;42.622;25.386;2023-05-29T04:52:26;12.88;;;10.30;;
9438;SDS011;5176;42.622;25.386;2023-05-29T04:54:55;16.33;;;12.57;;
9438;SDS011;5176;42.622;25.386;2023-05-29T04:57:23;13.80;;;11.77;;
9438;SDS011;5176;42.622;25.386;2023-05-29T04:59:51;12.30;;;10.55;;
9438;SDS011;5176;42.622;25.386;2023-05-29T05:02:18;12.55;;;10.63;;
9438;SDS011;5176;42.622;25.386;2023-05-29T05:04:45;12.77;;;10.07;;
9438;SDS011;5176;42.622;25.386;2023-05-29T05:07:13;9.60;;;8.60;;
9438;SDS011;5176;42.622;25.386;2023-05-29T05:09:41;10.45;;;9.07;;
9438;SDS011;5176;42.622;25.386;2023-05-29T05:12:09;11.07;;;8.55;;
9438;SDS011;5176;42.622;25.386;2023-05-29T05:14:37;9.93;;;6.78;;
9438;SDS011;5176;42.622;25.386;2023-05-29T05:17:04;6.43;;;5.28;;
9438;SDS011;5176;42.622;25.386;2023-05-29T05:19:31;8.13;;;5.50;;
9438;SDS011;5176;42.622;25.386;2023-05-29T05:21:58;8.45;;;6.75;;
9438;SDS011;5176;42.622;25.386;2023-05-29T05:24:26;11.45;;;7.10;;
9438;SDS011;5176;42.622;25.386;2023-05-29T05:26:53;7.93;;;6.32;;
9438;SDS011;5176;42.622;25.386;2023-05-29T05:29:22;7.50;;;5.68;;
9438;SDS011;5176;42.622;25.386;2023-05-29T05:31:49;6.45;;;5.85;;
9438;SDS011;5176;42.622;25.386;2023-05-29T05:34:16;6.38;;;5.78;;
9438;SDS011;5176;42.622;25.386;2023-05-29T05:36:43;6.03;;;5.10;;
9438;SDS011;5176;42.622;25.386;2023-05-29T05:39:11;6.50;;;5.32;;
9438;SDS011;5176;42.622;25.386;2023-05-29T05:41:38;7.70;;;5.30;;
9438;SDS011;5176;42.622;25.386;2023-05-29T05:44:05;7.25;;;5.85;;
9438;SDS011;5176;42.622;25.386;2023-05-29T05:46:34;6.10;;;5.60;;
9438;SDS011;5176;42.622;25.386;2023-05-29T05:49:01;4.88;;;4.35;;
9438;SDS011;5176;42.622;25.386;2023-05-29T05:51:28;4.03;;;3.72;;
9438;SDS011;5176;42.622;25.386;2023-05-29T05:53:56;4.15;;;3.83;;
9438;SDS011;5176;42.622;25.386;2023-05-29T05:56:23;4.22;;;3.83;;
9438;SDS011;5176;42.622;25.386;2023-05-29T05:58:51;4.07;;;3.78;;
9438;SDS011;5176;42.622;25.386;2023-05-29T06:01:19;3.90;;;3.63;;
9438;SDS011;5176;42.622;25.386;2023-05-29T06:03:47;4.53;;;4.13;;
9438;SDS011;5176;42.622;25.386;2023-05-29T06:06:15;4.68;;;4.25;;
9438;SDS011;5176;42.622;25.386;2023-05-29T06:08:43;5.28;;;4.88;;
9438;SDS011;5176;42.622;25.386;2023-05-29T06:11:11;4.85;;;4.45;;
9438;SDS011;5176;42.622;25.386;2023-05-29T06:13:38;4.50;;;4.10;;
9438;SDS011;5176;42.622;25.386;2023-05-29T06:16:05;4.63;;;4.22;;
9438;SDS011;5176;42.622;25.386;2023-05-29T06:18:33;4.10;;;3.70;;
9438;SDS011;5176;42.622;25.386;2023-05-29T06:21:02;4.75;;;4.25;;
9438;SDS011;5176;42.622;25.386;2023-05-29T06:23:30;4.38;;;4.07;;
9438;SDS011;5176;42.622;25.386;2023-05-29T06:25:57;4.60;;;4.28;;
9438;SDS011;5176;42.622;25.386;2023-05-29T06:28:24;4.80;;;4.40;;
9438;SDS011;5176;42.622;25.386;2023-05-29T06:30:52;4.28;;;3.97;;
9438;SDS011;5176;42.622;25.386;2023-05-29T06:33:19;7.35;;;4.20;;
9438;SDS011;5176;42.622;25.386;2023-05-29T06:35:47;4.60;;;3.80;;
9438;SDS011;5176;42.622;25.386;2023-05-29T06:38:16;4.80;;;3.72;;
9438;SDS011;5176;42.622;25.386;2023-05-29T06:40:43;4.10;;;3.70;;
9438;SDS011;5176;42.622;25.386;2023-05-29T06:43:10;3.55;;;3.25;;
9438;SDS011;5176;42.622;25.386;2023-05-29T06:45:38;3.95;;;2.80;;
9438;SDS011;5176;42.622;25.386;2023-05-29T06:48:06;2.83;;;2.63;;
9438;SDS011;5176;42.622;25.386;2023-05-29T06:50:33;3.17;;;2.97;;
9438;SDS011;5176;42.622;25.386;2023-05-29T06:53:00;2.90;;;2.70;;
9438;SDS011;5176;42.622;25.386;2023-05-29T06:55:29;4.00;;;3.35;;
9438;SDS011;5176;42.622;25.386;2023-05-29T06:57:56;3.42;;;3.22;;
9438;SDS011;5176;42.622;25.386;2023-05-29T07:00:23;3.20;;;2.97;;
9438;SDS011;5176;42.622;25.386;2023-05-29T07:02:51;4.20;;;3.35;;
9438;SDS011;5176;42.622;25.386;2023-05-29T07:05:18;3.63;;;3.28;;
9438;SDS011;5176;42.622;25.386;2023-05-29T07:07:45;3.55;;;3.25;;
9438;SDS011;5176;42.622;25.386;2023-05-29T07:10:13;3.80;;;3.50;;
9438;SDS011;5176;42.622;25.386;2023-05-29T07:12:41;3.45;;;3.25;;
9438;SDS011;5176;42.622;25.386;2023-05-29T07:15:09;4.22;;;3.83;;
9438;SDS011;5176;42.622;25.386;2023-05-29T07:17:37;4.18;;;3.78;;
9438;SDS011;5176;42.622;25.386;2023-05-29T07:20:04;3.85;;;3.47;;
9438;SDS011;5176;42.622;25.386;2023-05-29T07:22:33;4.15;;;3.78;;
9438;SDS011;5176;42.622;25.386;2023-05-29T07:25:01;3.80;;;3.50;;
9438;SDS011;5176;42.622;25.386;2023-05-29T07:27:28;3.67;;;3.38;;
9438;SDS011;5176;42.622;25.386;2023-05-29T07:29:57;3.90;;;3.60;;
9438;SDS011;5176;42.622;25.386;2023-05-29T07:32:24;3.85;;;3.55;;
9438;SDS011;5176;42.622;25.386;2023-05-29T07:34:51;4.20;;;3.80;;
9438;SDS011;5176;42.622;25.386;2023-05-29T07:37:21;3.50;;;3.30;;
9438;SDS011;5176;42.622;25.386;2023-05-29T07:39:48;3.53;;;3.33;;
9438;SDS011;5176;42.622;25.386;2023-05-29T07:42:15;3.03;;;2.83;;
9438;SDS011;5176;42.622;25.386;2023-05-29T07:44:44;4.43;;;3.35;;
9438;SDS011;5176;42.622;25.386;2023-05-29T07:47:13;3.90;;;3.22;;
9438;SDS011;5176;42.622;25.386;2023-05-29T07:49:40;3.85;;;3.55;;
9438;SDS011;5176;42.622;25.386;2023-05-29T07:52:08;3.25;;;3.05;;
9438;SDS011;5176;42.622;25.386;2023-05-29T07:54:35;3.20;;;3.00;;
9438;SDS011;5176;42.622;25.386;2023-05-29T07:57:02;3.13;;;2.92;;
9438;SDS011;5176;42.622;25.386;2023-05-29T07:59:34;3.30;;;3.00;;
9438;SDS011;5176;42.622;25.386;2023-05-29T08:02:01;2.70;;;2.50;;
9438;SDS011;5176;42.622;25.386;2023-05-29T08:04:31;2.38;;;2.28;;
9438;SDS011;5176;42.622;25.386;2023-05-29T08:06:58;2.13;;;1.80;;
9438;SDS011;5176;42.622;25.386;2023-05-29T08:09:26;2.13;;;2.00;;
9438;SDS011;5176;42.622;25.386;2023-05-29T08:11:54;1.83;;;1.73;;
9438;SDS011;5176;42.622;25.386;2023-05-29T08:14:21;1.88;;;1.77;;
9438;SDS011;5176;42.622;25.386;2023-05-29T08:16:51;2.20;;;1.80;;
9438;SDS011;5176;42.622;25.386;2023-05-29T08:19:19;3.90;;;1.85;;
9438;SDS011;5176;42.622;25.386;2023-05-29T08:21:47;2.00;;;1.88;;
9438;SDS011;5176;42.622;25.386;2023-05-29T08:24:14;2.08;;;1.98;;
9438;SDS011;5176;42.622;25.386;2023-05-29T08:26:43;2.00;;;1.90;;
9438;SDS011;5176;42.622;25.386;2023-05-29T08:29:10;2.25;;;2.05;;
9438;SDS011;5176;42.622;25.386;2023-05-29T08:31:37;3.25;;;1.90;;
9438;SDS011;5176;42.622;25.386;2023-05-29T08:34:05;1.80;;;1.70;;
9438;SDS011;5176;42.622;25.386;2023-05-29T08:36:33;1.88;;;1.77;;
9438;SDS011;5176;42.622;25.386;2023-05-29T08:39:01;1.60;;;1.50;;
9438;SDS011;5176;42.622;25.386;2023-05-29T08:41:31;2.92;;;1.80;;
9438;SDS011;5176;42.622;25.386;2023-05-29T08:44:04;1.90;;;1.80;;
9438;SDS011;5176;42.622;25.386;2023-05-29T08:46:34;2.05;;;1.95;;
9438;SDS011;5176;42.622;25.386;2023-05-29T08:49:03;2.03;;;1.80;;
9438;SDS011;5176;42.622;25.386;2023-05-29T08:51:31;1.85;;;1.75;;
9438;SDS011;5176;42.622;25.386;2023-05-29T08:54:05;1.75;;;1.63;;
9438;SDS011;5176;42.622;25.386;2023-05-29T08:56:32;1.85;;;1.75;;
9438;SDS011;5176;42.622;25.386;2023-05-29T08:59:01;1.70;;;1.60;;
9438;SDS011;5176;42.622;25.386;2023-05-29T09:01:28;2.33;;;2.13;;
9438;SDS011;5176;42.622;25.386;2023-05-29T09:03:58;2.53;;;2.08;;
9438;SDS011;5176;42.622;25.386;2023-05-29T09:06:26;2.03;;;1.77;;
9438;SDS011;5176;42.622;25.386;2023-05-29T09:08:53;2.35;;;1.77;;
9438;SDS011;5176;42.622;25.386;2023-05-29T09:11:22;1.75;;;1.65;;
9438;SDS011;5176;42.622;25.386;2023-05-29T09:13:51;2.05;;;1.95;;
9438;SDS011;5176;42.622;25.386;2023-05-29T09:16:19;2.00;;;1.90;;
9438;SDS011;5176;42.622;25.386;2023-05-29T09:18:47;1.65;;;1.55;;
9438;SDS011;5176;42.622;25.386;2023-05-29T09:21:24;1.80;;;1.70;;
9438;SDS011;5176;42.622;25.386;2023-05-29T09:23:52;2.70;;;2.20;;
9438;SDS011;5176;42.622;25.386;2023-05-29T09:26:22;2.42;;;2.22;;
9438;SDS011;5176;42.622;25.386;2023-05-29T09:28:50;2.22;;;2.03;;
9438;SDS011;5176;42.622;25.386;2023-05-29T09:31:17;2.00;;;1.90;;
9438;SDS011;5176;42.622;25.386;2023-05-29T09:33:48;2.10;;;2.00;;
9438;SDS011;5176;42.622;25.386;2023-05-29T09:36:19;2.50;;;2.33;;
9438;SDS011;5176;42.622;25.386;2023-05-29T09:38:48;2.30;;;2.10;;
9438;SDS011;5176;42.622;25.386;2023-05-29T09:41:20;1.80;;;1.67;;
9438;SDS011;5176;42.622;25.386;2023-05-29T09:43:50;1.80;;;1.70;;
9438;SDS011;5176;42.622;25.386;2023-05-29T09:46:18;1.70;;;1.60;;
9438;SDS011;5176;42.622;25.386;2023-05-29T09:48:46;1.83;;;1.73;;
9438;SDS011;5176;42.622;25.386;2023-05-29T09:51:20;1.70;;;1.60;;
9438;SDS011;5176;42.622;25.386;2023-05-29T09:53:48;2.10;;;1.60;;
9438;SDS011;5176;42.622;25.386;2023-05-29T09:56:17;1.40;;;1.30;;
9438;SDS011;5176;42.622;25.386;2023-05-29T09:58:44;1.90;;;1.80;;
9438;SDS011;5176;42.622;25.386;2023-05-29T10:01:14;1.75;;;1.65;;
9438;SDS011;5176;42.622;25.386;2023-05-29T10:03:42;1.67;;;1.58;;
9438;SDS011;5176;42.622;25.386;2023-05-29T10:06:11;2.10;;;1.83;;
9438;SDS011;5176;42.622;25.386;2023-05-29T10:08:45;1.80;;;1.70;;
9438;SDS011;5176;42.622;25.386;2023-05-29T10:11:15;1.92;;;1.83;;
9438;SDS011;5176;42.622;25.386;2023-05-29T10:13:50;1.70;;;1.63;;
9438;SDS011;5176;42.622;25.386;2023-05-29T10:16:21;2.20;;;2.00;;
9438;SDS011;5176;42.622;25.386;2023-05-29T10:18:53;2.70;;;2.03;;
9438;SDS011;5176;42.622;25.386;2023-05-29T10:21:21;1.85;;;1.75;;
9438;SDS011;5176;42.622;25.386;2023-05-29T10:23:51;3.03;;;2.08;;
9438;SDS011;5176;42.622;25.386;2023-05-29T10:26:22;2.00;;;1.90;;
9438;SDS011;5176;42.622;25.386;2023-05-29T10:28:53;1.90;;;1.80;;
9438;SDS011;5176;42.622;25.386;2023-05-29T10:31:28;1.30;;;1.30;;
9438;SDS011;5176;42.622;25.386;2023-05-29T10:34:08;1.85;;;1.60;;
9438;SDS011;5176;42.622;25.386;2023-05-29T10:36:47;1.98;;;1.67;;
9438;SDS011;5176;42.622;25.386;2023-05-29T10:39:21;1.75;;;1.65;;
9438;SDS011;5176;42.622;25.386;2023-05-29T10:41:48;2.33;;;1.80;;
9438;SDS011;5176;42.622;25.386;2023-05-29T10:47:08;2.47;;;1.80;;
9438;SDS011;5176;42.622;25.386;2023-05-29T10:49:37;2.97;;;2.08;;
9438;SDS011;5176;42.622;25.386;2023-05-29T10:52:05;2.17;;;1.95;;
9438;SDS011;5176;42.622;25.386;2023-05-29T10:54:49;2.08;;;1.98;;
9438;SDS011;5176;42.622;25.386;2023-05-29T10:57:20;1.83;;;1.73;;
9438;SDS011;5176;42.622;25.386;2023-05-29T11:00:07;2.30;;;1.98;;
9438;SDS011;5176;42.622;25.386;2023-05-29T11:02:40;2.05;;;1.95;;
9438;SDS011;5176;42.622;25.386;2023-05-29T11:05:18;2.17;;;2.08;;
9438;SDS011;5176;42.622;25.386;2023-05-29T11:07:54;2.30;;;2.20;;
9438;SDS011;5176;42.622;25.386;2023-05-29T11:10:42;2.70;;;2.53;;
9438;SDS011;5176;42.622;25.386;2023-05-29T11:13:11;2.53;;;2.33;;
9438;SDS011;5176;42.622;25.386;2023-05-29T11:16:04;2.58;;;2.47;;
9438;SDS011;5176;42.622;25.386;2023-05-29T11:18:39;2.90;;;2.70;;
9438;SDS011;5176;42.622;25.386;2023-05-29T11:21:12;3.65;;;2.92;;
9438;SDS011;5176;42.622;25.386;2023-05-29T11:23:50;3.60;;;3.30;;
9438;SDS011;5176;42.622;25.386;2023-05-29T11:26:18;3.45;;;3.15;;
9438;SDS011;5176;42.622;25.386;2023-05-29T11:28:47;3.70;;;3.00;;
9438;SDS011;5176;42.622;25.386;2023-05-29T11:31:14;3.30;;;3.10;;
9438;SDS011;5176;42.622;25.386;2023-05-29T11:33:47;3.53;;;3.22;;
9438;SDS011;5176;42.622;25.386;2023-05-29T11:36:16;3.47;;;3.17;;
9438;SDS011;5176;42.622;25.386;2023-05-29T11:38:44;4.40;;;3.63;;
9438;SDS011;5176;42.622;25.386;2023-05-29T11:41:12;3.50;;;3.20;;
9438;SDS011;5176;42.622;25.386;2023-05-29T11:43:39;3.40;;;3.10;;
9438;SDS011;5176;42.622;25.386;2023-05-29T11:46:16;3.58;;;3.10;;
9438;SDS011;5176;42.622;25.386;2023-05-29T11:48:46;4.55;;;3.30;;
9438;SDS011;5176;42.622;25.386;2023-05-29T11:51:14;7.13;;;3.47;;
9438;SDS011;5176;42.622;25.386;2023-05-29T11:53:42;3.35;;;3.05;;
9438;SDS011;5176;42.622;25.386;2023-05-29T11:56:10;4.78;;;3.03;;
9438;SDS011;5176;42.622;25.386;2023-05-29T11:58:37;3.05;;;2.83;;
9438;SDS011;5176;42.622;25.386;2023-05-29T12:01:05;3.05;;;2.80;;
9438;SDS011;5176;42.622;25.386;2023-05-29T12:03:37;3.88;;;3.08;;
9438;SDS011;5176;42.622;25.386;2023-05-29T12:06:08;3.47;;;3.28;;
9438;SDS011;5176;42.622;25.386;2023-05-29T12:08:35;4.47;;;4.07;;
9438;SDS011;5176;42.622;25.386;2023-05-29T12:11:03;3.78;;;3.47;;
9438;SDS011;5176;42.622;25.386;2023-05-29T12:13:31;4.35;;;3.75;;
9438;SDS011;5176;42.622;25.386;2023-05-29T12:15:59;3.97;;;3.67;;
9438;SDS011;5176;42.622;25.386;2023-05-29T12:18:28;4.43;;;3.70;;
9438;SDS011;5176;42.622;25.386;2023-05-29T12:20:59;4.72;;;4.20;;
9438;SDS011;5176;42.622;25.386;2023-05-29T12:23:29;4.78;;;4.30;;
9438;SDS011;5176;42.622;25.386;2023-05-29T12:25:58;7.75;;;4.38;;
9438;SDS011;5176;42.622;25.386;2023-05-29T12:28:25;4.40;;;4.03;;
9438;SDS011;5176;42.622;25.386;2023-05-29T12:30:57;4.25;;;3.92;;
9438;SDS011;5176;42.622;25.386;2023-05-29T12:33:27;4.28;;;3.85;;
9438;SDS011;5176;42.622;25.386;2023-05-29T12:36:00;4.15;;;3.80;;
9438;SDS011;5176;42.622;25.386;2023-05-29T12:38:30;4.55;;;4.25;;
9438;SDS011;5176;42.622;25.386;2023-05-29T12:40:57;4.82;;;4.32;;
9438;SDS011;5176;42.622;25.386;2023-05-29T12:43:24;6.53;;;4.78;;
9438;SDS011;5176;42.622;25.386;2023-05-29T12:45:55;5.07;;;4.30;;
9438;SDS011;5176;42.622;25.386;2023-05-29T12:48:26;3.90;;;3.60;;
9438;SDS011;5176;42.622;25.386;2023-05-29T12:50:54;6.32;;;4.18;;
9438;SDS011;5176;42.622;25.386;2023-05-29T12:53:23;4.40;;;4.00;;
9438;SDS011;5176;42.622;25.386;2023-05-29T12:55:57;5.32;;;4.35;;
9438;SDS011;5176;42.622;25.386;2023-05-29T12:58:24;4.80;;;4.32;;
9438;SDS011;5176;42.622;25.386;2023-05-29T13:00:52;4.45;;;4.05;;
9438;SDS011;5176;42.622;25.386;2023-05-29T13:03:22;4.88;;;4.35;;
9438;SDS011;5176;42.622;25.386;2023-05-29T13:05:50;4.70;;;4.30;;
9438;SDS011;5176;42.622;25.386;2023-05-29T13:08:18;4.28;;;3.97;;
9438;SDS011;5176;42.622;25.386;2023-05-29T13:10:48;5.22;;;4.70;;
9438;SDS011;5176;42.622;25.386;2023-05-29T13:13:15;4.80;;;4.40;;
9438;SDS011;5176;42.622;25.386;2023-05-29T13:15:43;5.80;;;4.03;;
9438;SDS011;5176;42.622;25.386;2023-05-29T13:18:11;4.88;;;4.47;;
9438;SDS011;5176;42.622;25.386;2023-05-29T13:20:38;4.78;;;4.45;;
9438;SDS011;5176;42.622;25.386;2023-05-29T13:23:05;5.18;;;4.00;;
9438;SDS011;5176;42.622;25.386;2023-05-29T13:25:34;5.22;;;4.25;;
9438;SDS011;5176;42.622;25.386;2023-05-29T13:28:03;4.25;;;3.83;;
9438;SDS011;5176;42.622;25.386;2023-05-29T13:30:30;4.03;;;3.60;;
9438;SDS011;5176;42.622;25.386;2023-05-29T13:32:57;4.88;;;4.18;;
9438;SDS011;5176;42.622;25.386;2023-05-29T13:35:24;4.60;;;4.20;;
9438;SDS011;5176;42.622;25.386;2023-05-29T13:37:52;4.85;;;4.40;;
9438;SDS011;5176;42.622;25.386;2023-05-29T13:40:19;5.60;;;4.00;;
9438;SDS011;5176;42.622;25.386;2023-05-29T13:42:46;4.20;;;3.80;;
9438;SDS011;5176;42.622;25.386;2023-05-29T13:45:15;4.30;;;3.88;;
9438;SDS011;5176;42.622;25.386;2023-05-29T13:47:42;3.72;;;3.40;;
9438;SDS011;5176;42.622;25.386;2023-05-29T13:50:10;3.42;;;3.20;;
9438;SDS011;5176;42.622;25.386;2023-05-29T13:52:37;3.85;;;3.40;;
9438;SDS011;5176;42.622;25.386;2023-05-29T13:55:05;3.72;;;3.33;;
9438;SDS011;5176;42.622;25.386;2023-05-29T13:57:34;3.45;;;3.03;;
9438;SDS011;5176;42.622;25.386;2023-05-29T14:00:01;3.80;;;3.50;;
9438;SDS011;5176;42.622;25.386;2023-05-29T14:02:30;3.78;;;3.47;;
9438;SDS011;5176;42.622;25.386;2023-05-29T14:04:58;4.85;;;3.95;;
9438;SDS011;5176;42.622;25.386;2023-05-29T14:07:25;4.25;;;3.90;;
9438;SDS011;5176;42.622;25.386;2023-05-29T14:09:52;5.10;;;4.60;;
9438;SDS011;5176;42.622;25.386;2023-05-29T14:12:20;5.25;;;4.85;;
9438;SDS011;5176;42.622;25.386;2023-05-29T14:14:47;4.53;;;4.22;;
9438;SDS011;5176;42.622;25.386;2023-05-29T14:17:14;4.53;;;4.13;;
9438;SDS011;5176;42.622;25.386;2023-05-29T14:19:43;5.47;;;4.95;;
9438;SDS011;5176;42.622;25.386;2023-05-29T14:22:12;5.22;;;4.72;;
9438;SDS011;5176;42.622;25.386;2023-05-29T14:24:40;7.53;;;5.10;;
9438;SDS011;5176;42.622;25.386;2023-05-29T14:27:07;4.95;;;4.55;;
9438;SDS011;5176;42.622;25.386;2023-05-29T14:29:35;4.20;;;3.90;;
9438;SDS011;5176;42.622;25.386;2023-05-29T14:32:02;4.95;;;4.55;;
9438;SDS011;5176;42.622;25.386;2023-05-29T14:34:29;4.63;;;4.22;;
9438;SDS011;5176;42.622;25.386;2023-05-29T14:36:58;4.68;;;4.28;;
9438;SDS011;5176;42.622;25.386;2023-05-29T14:39:25;4.45;;;3.90;;
9438;SDS011;5176;42.622;25.386;2023-05-29T14:41:53;4.25;;;3.95;;
9438;SDS011;5176;42.622;25.386;2023-05-29T14:44:20;4.32;;;4.03;;
9438;SDS011;5176;42.622;25.386;2023-05-29T14:46:47;4.78;;;4.38;;
9438;SDS011;5176;42.622;25.386;2023-05-29T14:49:15;4.68;;;4.20;;
9438;SDS011;5176;42.622;25.386;2023-05-29T14:51:42;5.78;;;4.60;;
9438;SDS011;5176;42.622;25.386;2023-05-29T14:54:11;7.32;;;4.35;;
9438;SDS011;5176;42.622;25.386;2023-05-29T14:56:39;4.93;;;4.53;;
9438;SDS011;5176;42.622;25.386;2023-05-29T14:59:06;5.30;;;4.35;;
9438;SDS011;5176;42.622;25.386;2023-05-29T15:01:33;4.90;;;4.50;;
9438;SDS011;5176;42.622;25.386;2023-05-29T15:04:00;5.05;;;4.60;;
9438;SDS011;5176;42.622;25.386;2023-05-29T15:06:28;6.50;;;4.38;;
9438;SDS011;5176;42.622;25.386;2023-05-29T15:08:55;4.80;;;4.40;;
9438;SDS011;5176;42.622;25.386;2023-05-29T15:11:25;5.10;;;4.57;;